sensor_id;sensor_type;location;lat;lon;timestamp;temperature;humidity
71297;SHT31;59082;50.658;4.608;2023-03-12T06:17:36;4.99;99.99
71297;SHT31;59082;50.658;4.608;2023-03-12T06:20:01;5.05;99.99
71297;SHT31;59082;50.658;4.608;2023-03-12T06:22:27;5.12;99.99
71297;SHT31;59082;50.658;4.608;2023-03-12T06:24:53;5.18;99.99
71297;SHT31;59082;50.658;4.608;2023-03-12T06:27:19;5.23;99.99
71297;SHT31;59082;50.658;4.608;2023-03-12T06:29:45;5.32;99.99
71297;SHT31;59082;50.658;4.608;2023-03-12T06:32:11;5.36;99.99
71297;SHT31;59082;50.658;4.608;2023-03-12T06:34:37;5.42;99.99
71297;SHT31;59082;50.658;4.608;2023-03-12T06:37:03;5.51;99.99
71297;SHT31;59082;50.658;4.608;2023-03-12T06:39:28;5.61;99.99
71297;SHT31;59082;50.658;4.608;2023-03-12T06:41:54;5.68;99.99
71297;SHT31;59082;50.658;4.608;2023-03-12T06:44:20;5.77;99.99
71297;SHT31;59082;50.658;4.608;2023-03-12T06:46:45;5.90;99.99
71297;SHT31;59082;50.658;4.608;2023-03-12T06:49:11;5.99;99.99
71297;SHT31;59082;50.658;4.608;2023-03-12T06:51:36;6.09;99.99
71297;SHT31;59082;50.658;4.608;2023-03-12T06:54:03;6.16;99.99
71297;SHT31;59082;50.658;4.608;2023-03-12T06:56:29;6.23;99.99
71297;SHT31;59082;50.658;4.608;2023-03-12T06:58:56;6.28;99.99
71297;SHT31;59082;50.658;4.608;2023-03-12T07:01:22;6.34;99.99
71297;SHT31;59082;50.658;4.608;2023-03-12T07:03:47;6.43;99.99
71297;SHT31;59082;50.658;4.608;2023-03-12T07:06:16;6.51;99.99
71297;SHT31;59082;50.658;4.608;2023-03-12T07:08:42;6.66;99.99
71297;SHT31;59082;50.658;4.608;2023-03-12T07:11:08;6.78;99.99
71297;SHT31;59082;50.658;4.608;2023-03-12T07:13:34;6.83;99.99
71297;SHT31;59082;50.658;4.608;2023-03-12T07:16:00;6.84;99.99
71297;SHT31;59082;50.658;4.608;2023-03-12T07:18:26;6.85;99.99
71297;SHT31;59082;50.658;4.608;2023-03-12T07:20:52;6.91;99.99
71297;SHT31;59082;50.658;4.608;2023-03-12T07:23:18;6.98;99.99
71297;SHT31;59082;50.658;4.608;2023-03-12T07:25:44;7.07;99.99
71297;SHT31;59082;50.658;4.608;2023-03-12T07:28:10;7.12;99.99
71297;SHT31;59082;50.658;4.608;2023-03-12T07:30:38;7.08;99.99
71297;SHT31;59082;50.658;4.608;2023-03-12T07:33:06;7.18;99.99
71297;SHT31;59082;50.658;4.608;2023-03-12T07:35:33;7.42;99.99
71297;SHT31;59082;50.658;4.608;2023-03-12T07:38:00;7.47;99.99
71297;SHT31;59082;50.658;4.608;2023-03-12T07:40:27;7.50;99.99
71297;SHT31;59082;50.658;4.608;2023-03-12T07:42:53;7.40;99.99
71297;SHT31;59082;50.658;4.608;2023-03-12T07:45:19;7.43;99.99
71297;SHT31;59082;50.658;4.608;2023-03-12T07:47:45;7.55;99.99
71297;SHT31;59082;50.658;4.608;2023-03-12T07:50:11;7.59;99.99
71297;SHT31;59082;50.658;4.608;2023-03-12T07:52:37;7.71;99.99
71297;SHT31;59082;50.658;4.608;2023-03-12T07:55:03;7.71;99.99
71297;SHT31;59082;50.658;4.608;2023-03-12T07:57:28;7.70;99.99
71297;SHT31;59082;50.658;4.608;2023-03-12T07:59:57;7.81;99.99
71297;SHT31;59082;50.658;4.608;2023-03-12T08:02:23;7.73;99.99
71297;SHT31;59082;50.658;4.608;2023-03-12T08:04:49;7.81;99.99
71297;SHT31;59082;50.658;4.608;2023-03-12T08:07:14;7.84;99.99
71297;SHT31;59082;50.658;4.608;2023-03-12T08:09:40;7.93;99.99
71297;SHT31;59082;50.658;4.608;2023-03-12T08:12:07;7.97;99.99
71297;SHT31;59082;50.658;4.608;2023-03-12T08:14:33;8.01;99.99
71297;SHT31;59082;50.658;4.608;2023-03-12T08:16:59;8.06;99.99
71297;SHT31;59082;50.658;4.608;2023-03-12T08:19:26;8.09;99.99
71297;SHT31;59082;50.658;4.608;2023-03-12T08:21:52;8.14;99.99
71297;SHT31;59082;50.658;4.608;2023-03-12T08:24:20;8.18;99.99
71297;SHT31;59082;50.658;4.608;2023-03-12T08:26:49;8.18;99.99
71297;SHT31;59082;50.658;4.608;2023-03-12T08:29:15;8.21;99.99
71297;SHT31;59082;50.658;4.608;2023-03-12T08:31:42;8.31;99.99
71297;SHT31;59082;50.658;4.608;2023-03-12T08:34:13;8.36;99.99
71297;SHT31;59082;50.658;4.608;2023-03-12T08:36:39;8.53;99.99
71297;SHT31;59082;50.658;4.608;2023-03-12T08:39:07;8.57;99.99
71297;SHT31;59082;50.658;4.608;2023-03-12T08:41:38;8.63;99.99
71297;SHT31;59082;50.658;4.608;2023-03-12T08:44:03;8.71;99.99
71297;SHT31;59082;50.658;4.608;2023-03-12T08:46:29;8.88;99.99
71297;SHT31;59082;50.658;4.608;2023-03-12T08:48:54;8.84;99.99
71297;SHT31;59082;50.658;4.608;2023-03-12T08:51:20;8.88;99.99
71297;SHT31;59082;50.658;4.608;2023-03-12T08:53:46;9.04;99.99
71297;SHT31;59082;50.658;4.608;2023-03-12T08:56:12;8.92;99.99
71297;SHT31;59082;50.658;4.608;2023-03-12T08:58:37;8.96;99.99
71297;SHT31;59082;50.658;4.608;2023-03-12T09:01:10;9.03;99.99
71297;SHT31;59082;50.658;4.608;2023-03-12T09:03:36;9.07;99.99
71297;SHT31;59082;50.658;4.608;2023-03-12T09:06:08;9.17;99.99
71297;SHT31;59082;50.658;4.608;2023-03-12T09:08:41;9.17;99.99
71297;SHT31;59082;50.658;4.608;2023-03-12T09:11:08;9.15;99.99
71297;SHT31;59082;50.658;4.608;2023-03-12T09:13:33;9.39;99.99
71297;SHT31;59082;50.658;4.608;2023-03-12T09:16:00;9.43;99.99
71297;SHT31;59082;50.658;4.608;2023-03-12T09:18:27;9.40;99.99
71297;SHT31;59082;50.658;4.608;2023-03-12T09:20:53;9.43;99.99
71297;SHT31;59082;50.658;4.608;2023-03-12T09:23:19;9.60;99.99
71297;SHT31;59082;50.658;4.608;2023-03-12T09:25:45;9.55;99.99
71297;SHT31;59082;50.658;4.608;2023-03-12T09:28:12;9.66;99.99
71297;SHT31;59082;50.658;4.608;2023-03-12T09:30:38;9.76;99.99
71297;SHT31;59082;50.658;4.608;2023-03-12T09:33:04;9.69;99.99
71297;SHT31;59082;50.658;4.608;2023-03-12T09:35:29;9.60;99.99
71297;SHT31;59082;50.658;4.608;2023-03-12T09:37:59;9.75;99.99
71297;SHT31;59082;50.658;4.608;2023-03-12T09:40:28;9.76;99.99
71297;SHT31;59082;50.658;4.608;2023-03-12T09:43:00;9.89;99.99
71297;SHT31;59082;50.658;4.608;2023-03-12T09:45:30;10.25;99.99
71297;SHT31;59082;50.658;4.608;2023-03-12T09:48:05;10.34;99.99
71297;SHT31;59082;50.658;4.608;2023-03-12T09:50:41;11.17;99.99
71297;SHT31;59082;50.658;4.608;2023-03-12T09:53:39;11.41;99.99
71297;SHT31;59082;50.658;4.608;2023-03-12T09:56:13;11.35;99.99
71297;SHT31;59082;50.658;4.608;2023-03-12T09:58:39;11.32;99.99
71297;SHT31;59082;50.658;4.608;2023-03-12T10:17:44;12.34;99.99
71297;SHT31;59082;50.658;4.608;2023-03-12T10:20:40;12.02;99.99
71297;SHT31;59082;50.658;4.608;2023-03-12T10:26:18;12.95;98.77
71297;SHT31;59082;50.658;4.608;2023-03-12T10:34:28;13.02;97.33
71297;SHT31;59082;50.658;4.608;2023-03-12T10:37:04;12.72;97.71
71297;SHT31;59082;50.658;4.608;2023-03-12T10:39:31;12.62;98.68
71297;SHT31;59082;50.658;4.608;2023-03-12T10:42:00;12.82;98.36
71297;SHT31;59082;50.658;4.608;2023-03-12T10:44:27;12.51;98.99
71297;SHT31;59082;50.658;4.608;2023-03-12T10:47:07;12.38;99.29
71297;SHT31;59082;50.658;4.608;2023-03-12T10:49:38;12.99;98.87
71297;SHT31;59082;50.658;4.608;2023-03-12T10:52:18;13.02;97.95
71297;SHT31;59082;50.658;4.608;2023-03-12T10:54:46;13.37;96.47
71297;SHT31;59082;50.658;4.608;2023-03-12T10:57:13;13.77;95.96
71297;SHT31;59082;50.658;4.608;2023-03-12T10:59:44;14.11;95.58
71297;SHT31;59082;50.658;4.608;2023-03-12T11:02:40;14.34;93.47
71297;SHT31;59082;50.658;4.608;2023-03-12T11:05:28;13.55;95.14
71297;SHT31;59082;50.658;4.608;2023-03-12T11:07:55;13.63;94.66
71297;SHT31;59082;50.658;4.608;2023-03-12T11:10:23;12.98;96.19
71297;SHT31;59082;50.658;4.608;2023-03-12T11:12:58;13.24;96.72
71297;SHT31;59082;50.658;4.608;2023-03-12T11:15:28;13.58;95.60
71297;SHT31;59082;50.658;4.608;2023-03-12T11:18:19;13.67;95.34
71297;SHT31;59082;50.658;4.608;2023-03-12T11:20:47;13.60;95.43
71297;SHT31;59082;50.658;4.608;2023-03-12T11:23:20;14.02;94.90
71297;SHT31;59082;50.658;4.608;2023-03-12T11:26:00;13.94;94.15
71297;SHT31;59082;50.658;4.608;2023-03-12T11:28:40;14.33;92.80
71297;SHT31;59082;50.658;4.608;2023-03-12T11:31:13;14.09;92.59
71297;SHT31;59082;50.658;4.608;2023-03-12T11:33:40;14.02;93.12
71297;SHT31;59082;50.658;4.608;2023-03-12T11:36:25;14.08;92.55
71297;SHT31;59082;50.658;4.608;2023-03-12T11:42:18;14.11;91.78
71297;SHT31;59082;50.658;4.608;2023-03-12T11:56:16;16.11;86.63
71297;SHT31;59082;50.658;4.608;2023-03-12T11:59:21;15.96;87.33
71297;SHT31;59082;50.658;4.608;2023-03-12T12:05:03;14.37;89.23
71297;SHT31;59082;50.658;4.608;2023-03-12T12:27:25;13.33;90.04
71297;SHT31;59082;50.658;4.608;2023-03-12T12:35:37;13.05;94.12
71297;SHT31;59082;50.658;4.608;2023-03-12T12:40:44;15.53;86.51
71297;SHT31;59082;50.658;4.608;2023-03-12T12:43:38;14.97;87.00
71297;SHT31;59082;50.658;4.608;2023-03-12T12:46:08;15.01;86.84
71297;SHT31;59082;50.658;4.608;2023-03-12T12:48:37;14.88;86.11
71297;SHT31;59082;50.658;4.608;2023-03-12T12:51:04;13.91;86.74
71297;SHT31;59082;50.658;4.608;2023-03-12T13:01:54;14.12;85.14
71297;SHT31;59082;50.658;4.608;2023-03-12T13:04:35;13.74;85.89
71297;SHT31;59082;50.658;4.608;2023-03-12T13:09:44;13.55;85.14
71297;SHT31;59082;50.658;4.608;2023-03-12T13:14:46;13.36;86.17
71297;SHT31;59082;50.658;4.608;2023-03-12T13:17:20;13.13;87.15
71297;SHT31;59082;50.658;4.608;2023-03-12T13:19:49;13.64;86.60
71297;SHT31;59082;50.658;4.608;2023-03-12T13:22:44;14.64;85.31
71297;SHT31;59082;50.658;4.608;2023-03-12T13:25:46;14.53;84.09
71297;SHT31;59082;50.658;4.608;2023-03-12T13:36:44;14.95;83.21
71297;SHT31;59082;50.658;4.608;2023-03-12T13:49:45;14.12;86.10
71297;SHT31;59082;50.658;4.608;2023-03-12T13:52:42;15.56;83.07
71297;SHT31;59082;50.658;4.608;2023-03-12T13:55:28;16.26;79.85
71297;SHT31;59082;50.658;4.608;2023-03-12T13:58:07;15.57;81.52
71297;SHT31;59082;50.658;4.608;2023-03-12T14:01:05;15.49;81.11
71297;SHT31;59082;50.658;4.608;2023-03-12T14:03:40;14.87;82.53
71297;SHT31;59082;50.658;4.608;2023-03-12T14:08:48;15.71;80.75
71297;SHT31;59082;50.658;4.608;2023-03-12T14:16:55;16.26;80.54
71297;SHT31;59082;50.658;4.608;2023-03-12T14:19:29;16.15;80.33
71297;SHT31;59082;50.658;4.608;2023-03-12T14:21:59;16.21;80.55
71297;SHT31;59082;50.658;4.608;2023-03-12T14:24:33;16.05;81.06
71297;SHT31;59082;50.658;4.608;2023-03-12T14:27:00;15.64;81.22
71297;SHT31;59082;50.658;4.608;2023-03-12T14:29:35;14.84;82.14
71297;SHT31;59082;50.658;4.608;2023-03-12T14:32:13;14.95;82.33
71297;SHT31;59082;50.658;4.608;2023-03-12T14:34:44;14.83;81.72
71297;SHT31;59082;50.658;4.608;2023-03-12T14:37:20;14.56;82.51
71297;SHT31;59082;50.658;4.608;2023-03-12T14:39:50;14.88;82.37
71297;SHT31;59082;50.658;4.608;2023-03-12T14:42:21;14.50;82.92
71297;SHT31;59082;50.658;4.608;2023-03-12T14:45:03;14.16;83.09
71297;SHT31;59082;50.658;4.608;2023-03-12T14:47:41;14.25;83.79
71297;SHT31;59082;50.658;4.608;2023-03-12T14:50:36;14.78;82.94
71297;SHT31;59082;50.658;4.608;2023-03-12T14:53:22;14.60;82.51
71297;SHT31;59082;50.658;4.608;2023-03-12T14:56:29;14.28;83.09
71297;SHT31;59082;50.658;4.608;2023-03-12T14:58:54;14.30;83.83
71297;SHT31;59082;50.658;4.608;2023-03-12T15:01:27;14.16;83.48
71297;SHT31;59082;50.658;4.608;2023-03-12T15:04:02;13.97;84.27
71297;SHT31;59082;50.658;4.608;2023-03-12T15:06:32;14.46;83.62
71297;SHT31;59082;50.658;4.608;2023-03-12T15:09:00;14.68;81.84
71297;SHT31;59082;50.658;4.608;2023-03-12T15:11:31;14.20;82.23
71297;SHT31;59082;50.658;4.608;2023-03-12T15:14:07;13.84;82.85
71297;SHT31;59082;50.658;4.608;2023-03-12T15:16:34;13.86;83.25
71297;SHT31;59082;50.658;4.608;2023-03-12T15:19:01;13.84;83.56
71297;SHT31;59082;50.658;4.608;2023-03-12T15:21:28;13.74;82.76
71297;SHT31;59082;50.658;4.608;2023-03-12T15:23:53;13.68;82.91
71297;SHT31;59082;50.658;4.608;2023-03-12T15:29:15;13.58;83.76
71297;SHT31;59082;50.658;4.608;2023-03-12T15:31:52;13.65;83.89
71297;SHT31;59082;50.658;4.608;2023-03-12T15:34:36;13.75;83.83
71297;SHT31;59082;50.658;4.608;2023-03-12T15:37:25;13.77;84.56
71297;SHT31;59082;50.658;4.608;2023-03-12T15:39:54;13.57;84.77
71297;SHT31;59082;50.658;4.608;2023-03-12T15:42:23;13.61;84.49
71297;SHT31;59082;50.658;4.608;2023-03-12T15:44:57;13.67;85.08
71297;SHT31;59082;50.658;4.608;2023-03-12T15:47:26;13.51;85.24
71297;SHT31;59082;50.658;4.608;2023-03-12T15:49:58;13.75;85.23
71297;SHT31;59082;50.658;4.608;2023-03-12T15:52:31;13.71;85.26
71297;SHT31;59082;50.658;4.608;2023-03-12T16:02:49;12.91;86.30
71297;SHT31;59082;50.658;4.608;2023-03-12T16:05:17;12.85;86.22
71297;SHT31;59082;50.658;4.608;2023-03-12T16:07:42;12.71;86.48
71297;SHT31;59082;50.658;4.608;2023-03-12T16:10:15;12.79;87.06
71297;SHT31;59082;50.658;4.608;2023-03-12T16:12:42;12.81;86.59
71297;SHT31;59082;50.658;4.608;2023-03-12T16:15:20;12.64;87.12
71297;SHT31;59082;50.658;4.608;2023-03-12T16:17:46;12.62;87.93
71297;SHT31;59082;50.658;4.608;2023-03-12T16:20:13;12.55;88.30
71297;SHT31;59082;50.658;4.608;2023-03-12T16:22:40;12.60;87.95
71297;SHT31;59082;50.658;4.608;2023-03-12T16:25:06;12.47;88.13
71297;SHT31;59082;50.658;4.608;2023-03-12T16:27:32;12.42;88.59
71297;SHT31;59082;50.658;4.608;2023-03-12T16:30:05;12.41;88.84
71297;SHT31;59082;50.658;4.608;2023-03-12T16:32:31;12.26;89.95
71297;SHT31;59082;50.658;4.608;2023-03-12T16:34:57;12.27;89.53
71297;SHT31;59082;50.658;4.608;2023-03-12T16:37:22;12.17;89.66
71297;SHT31;59082;50.658;4.608;2023-03-12T16:39:49;12.12;89.90
71297;SHT31;59082;50.658;4.608;2023-03-12T16:42:16;12.04;90.82
71297;SHT31;59082;50.658;4.608;2023-03-12T16:44:44;11.93;90.58
71297;SHT31;59082;50.658;4.608;2023-03-12T16:47:13;11.93;90.98
71297;SHT31;59082;50.658;4.608;2023-03-12T16:49:39;11.90;91.69
71297;SHT31;59082;50.658;4.608;2023-03-12T16:52:25;11.86;91.97
71297;SHT31;59082;50.658;4.608;2023-03-12T16:54:55;11.76;92.72
71297;SHT31;59082;50.658;4.608;2023-03-12T16:57:26;11.69;92.26
71297;SHT31;59082;50.658;4.608;2023-03-12T16:59:53;11.61;92.75
71297;SHT31;59082;50.658;4.608;2023-03-12T17:02:19;11.59;92.92
71297;SHT31;59082;50.658;4.608;2023-03-12T17:04:46;11.45;93.82
71297;SHT31;59082;50.658;4.608;2023-03-12T17:07:13;11.41;93.87
71297;SHT31;59082;50.658;4.608;2023-03-12T17:09:38;11.44;94.05
71297;SHT31;59082;50.658;4.608;2023-03-12T17:12:05;11.39;94.29
71297;SHT31;59082;50.658;4.608;2023-03-12T17:14:31;11.28;94.76
71297;SHT31;59082;50.658;4.608;2023-03-12T17:16:56;11.20;94.89
71297;SHT31;59082;50.658;4.608;2023-03-12T17:19:22;11.18;95.39
71297;SHT31;59082;50.658;4.608;2023-03-12T17:21:48;11.06;95.82
71297;SHT31;59082;50.658;4.608;2023-03-12T17:24:13;10.93;96.51
71297;SHT31;59082;50.658;4.608;2023-03-12T17:26:40;10.76;97.31
71297;SHT31;59082;50.658;4.608;2023-03-12T17:29:06;10.62;97.48
71297;SHT31;59082;50.658;4.608;2023-03-12T17:31:32;10.46;97.92
71297;SHT31;59082;50.658;4.608;2023-03-12T17:33:57;10.35;97.97
71297;SHT31;59082;50.658;4.608;2023-03-12T17:36:23;10.27;98.72
71297;SHT31;59082;50.658;4.608;2023-03-12T17:38:48;10.18;98.78
71297;SHT31;59082;50.658;4.608;2023-03-12T17:41:14;10.17;98.91
71297;SHT31;59082;50.658;4.608;2023-03-12T17:43:41;10.11;99.23
71297;SHT31;59082;50.658;4.608;2023-03-12T17:46:08;10.20;98.54
71297;SHT31;59082;50.658;4.608;2023-03-12T17:48:34;10.00;99.51
71297;SHT31;59082;50.658;4.608;2023-03-12T17:51:07;9.95;99.71
71297;SHT31;59082;50.658;4.608;2023-03-12T17:53:34;9.97;99.46
71297;SHT31;59082;50.658;4.608;2023-03-12T17:56:00;9.95;99.60
71297;SHT31;59082;50.658;4.608;2023-03-12T17:58:26;9.97;99.17
71297;SHT31;59082;50.658;4.608;2023-03-12T18:00:51;10.13;98.19
71297;SHT31;59082;50.658;4.608;2023-03-12T18:03:17;10.07;98.89
71297;SHT31;59082;50.658;4.608;2023-03-12T18:05:42;10.07;99.15
71297;SHT31;59082;50.658;4.608;2023-03-12T18:08:09;10.10;98.78
71297;SHT31;59082;50.658;4.608;2023-03-12T18:10:38;10.00;99.02
71297;SHT31;59082;50.658;4.608;2023-03-12T18:13:05;9.97;98.99
71297;SHT31;59082;50.658;4.608;2023-03-12T18:15:30;9.97;98.49
71297;SHT31;59082;50.658;4.608;2023-03-12T18:17:56;9.95;98.24
71297;SHT31;59082;50.658;4.608;2023-03-12T18:20:23;9.94;98.40
71297;SHT31;59082;50.658;4.608;2023-03-12T18:22:49;9.93;98.14
71297;SHT31;59082;50.658;4.608;2023-03-12T18:25:15;9.95;97.62
71297;SHT31;59082;50.658;4.608;2023-03-12T18:27:40;10.15;97.68
71297;SHT31;59082;50.658;4.608;2023-03-12T18:30:08;10.07;97.11
71297;SHT31;59082;50.658;4.608;2023-03-12T18:32:37;9.95;97.38
71297;SHT31;59082;50.658;4.608;2023-03-12T18:35:04;10.00;96.85
71297;SHT31;59082;50.658;4.608;2023-03-12T18:37:30;9.91;97.71
71297;SHT31;59082;50.658;4.608;2023-03-12T18:39:56;9.84;98.10
71297;SHT31;59082;50.658;4.608;2023-03-12T18:42:22;9.84;97.54
71297;SHT31;59082;50.658;4.608;2023-03-12T18:44:48;9.75;98.13
71297;SHT31;59082;50.658;4.608;2023-03-12T18:47:16;9.66;98.75
71297;SHT31;59082;50.658;4.608;2023-03-12T18:49:42;9.69;98.17
71297;SHT31;59082;50.658;4.608;2023-03-12T18:52:08;9.69;98.55
71297;SHT31;59082;50.658;4.608;2023-03-12T18:54:33;9.76;98.20
71297;SHT31;59082;50.658;4.608;2023-03-12T18:56:59;9.70;98.13
71297;SHT31;59082;50.658;4.608;2023-03-12T18:59:25;9.76;98.35
71297;SHT31;59082;50.658;4.608;2023-03-12T19:01:50;9.72;98.21
71297;SHT31;59082;50.658;4.608;2023-03-12T19:04:17;9.60;98.70
71297;SHT31;59082;50.658;4.608;2023-03-12T19:06:44;9.59;98.83
71297;SHT31;59082;50.658;4.608;2023-03-12T19:09:10;9.56;98.59
71297;SHT31;59082;50.658;4.608;2023-03-12T19:11:36;9.45;99.09
71297;SHT31;59082;50.658;4.608;2023-03-12T19:14:02;9.50;99.10
71297;SHT31;59082;50.658;4.608;2023-03-12T19:16:29;9.48;99.00
71297;SHT31;59082;50.658;4.608;2023-03-12T19:18:55;9.59;98.69
71297;SHT31;59082;50.658;4.608;2023-03-12T19:21:21;9.56;99.01
71297;SHT31;59082;50.658;4.608;2023-03-12T19:23:47;9.59;98.90
71297;SHT31;59082;50.658;4.608;2023-03-12T19:26:12;9.59;99.10
71297;SHT31;59082;50.658;4.608;2023-03-12T19:28:41;9.60;99.35
71297;SHT31;59082;50.658;4.608;2023-03-12T19:31:10;9.56;99.42
71297;SHT31;59082;50.658;4.608;2023-03-12T19:33:36;9.62;99.06
71297;SHT31;59082;50.658;4.608;2023-03-12T19:36:02;9.57;99.45
71297;SHT31;59082;50.658;4.608;2023-03-12T19:38:28;9.59;99.49
71297;SHT31;59082;50.658;4.608;2023-03-12T19:40:56;9.69;99.19
71297;SHT31;59082;50.658;4.608;2023-03-12T19:43:23;9.66;99.24
71297;SHT31;59082;50.658;4.608;2023-03-12T19:45:49;9.59;99.62
71297;SHT31;59082;50.658;4.608;2023-03-12T19:48:15;9.55;99.64
71297;SHT31;59082;50.658;4.608;2023-03-12T19:50:41;9.57;99.19
71297;SHT31;59082;50.658;4.608;2023-03-12T19:53:09;9.50;99.74
71297;SHT31;59082;50.658;4.608;2023-03-12T19:55:34;9.48;99.99
71297;SHT31;59082;50.658;4.608;2023-03-12T19:58:00;9.40;99.99
71297;SHT31;59082;50.658;4.608;2023-03-12T20:00:25;9.46;99.99
71297;SHT31;59082;50.658;4.608;2023-03-12T20:02:51;9.40;99.99
71297;SHT31;59082;50.658;4.608;2023-03-12T20:05:16;9.38;99.99
71297;SHT31;59082;50.658;4.608;2023-03-12T20:07:42;9.48;99.99
71297;SHT31;59082;50.658;4.608;2023-03-12T20:10:09;9.36;99.99
71297;SHT31;59082;50.658;4.608;2023-03-12T20:12:36;9.32;99.99
71297;SHT31;59082;50.658;4.608;2023-03-12T20:15:02;9.36;99.99
71297;SHT31;59082;50.658;4.608;2023-03-12T20:17:29;9.40;99.99
71297;SHT31;59082;50.658;4.608;2023-03-12T20:19:55;9.42;99.99
71297;SHT31;59082;50.658;4.608;2023-03-12T20:22:25;9.45;99.99
71297;SHT31;59082;50.658;4.608;2023-03-12T20:24:52;9.40;99.99
71297;SHT31;59082;50.658;4.608;2023-03-12T20:27:19;9.25;99.99
71297;SHT31;59082;50.658;4.608;2023-03-12T20:29:44;9.19;99.99
71297;SHT31;59082;50.658;4.608;2023-03-12T20:32:11;9.05;99.99
71297;SHT31;59082;50.658;4.608;2023-03-12T20:34:37;8.97;99.99
71297;SHT31;59082;50.658;4.608;2023-03-12T20:37:03;9.29;99.99
71297;SHT31;59082;50.658;4.608;2023-03-12T20:39:28;9.28;99.99
71297;SHT31;59082;50.658;4.608;2023-03-12T20:41:54;9.27;99.99
71297;SHT31;59082;50.658;4.608;2023-03-12T20:44:19;9.24;99.99
71297;SHT31;59082;50.658;4.608;2023-03-12T20:46:45;9.19;99.99
71297;SHT31;59082;50.658;4.608;2023-03-12T20:49:11;9.40;99.99
71297;SHT31;59082;50.658;4.608;2023-03-12T20:51:36;9.46;99.99
71297;SHT31;59082;50.658;4.608;2023-03-12T20:54:02;9.59;99.58
71297;SHT31;59082;50.658;4.608;2023-03-12T20:56:27;9.59;99.86
71297;SHT31;59082;50.658;4.608;2023-03-12T20:58:53;9.57;99.41
71297;SHT31;59082;50.658;4.608;2023-03-12T21:01:19;9.49;99.99
71297;SHT31;59082;50.658;4.608;2023-03-12T21:03:44;9.40;99.99
71297;SHT31;59082;50.658;4.608;2023-03-12T21:06:10;9.32;99.99
71297;SHT31;59082;50.658;4.608;2023-03-12T21:08:35;9.21;99.99
71297;SHT31;59082;50.658;4.608;2023-03-12T21:11:04;9.29;99.99
71297;SHT31;59082;50.658;4.608;2023-03-12T21:13:30;9.43;99.99
71297;SHT31;59082;50.658;4.608;2023-03-12T21:15:55;9.45;99.99
71297;SHT31;59082;50.658;4.608;2023-03-12T21:18:21;9.49;99.99
71297;SHT31;59082;50.658;4.608;2023-03-12T21:20:46;9.66;99.99
71297;SHT31;59082;50.658;4.608;2023-03-12T21:23:12;9.67;99.99
71297;SHT31;59082;50.658;4.608;2023-03-12T21:25:39;9.67;99.99
71297;SHT31;59082;50.658;4.608;2023-03-12T21:28:06;9.73;99.99
71297;SHT31;59082;50.658;4.608;2023-03-12T21:30:32;9.73;99.99
71297;SHT31;59082;50.658;4.608;2023-03-12T21:32:59;9.72;99.99
71297;SHT31;59082;50.658;4.608;2023-03-12T21:35:25;9.73;99.99
71297;SHT31;59082;50.658;4.608;2023-03-12T21:37:50;9.75;99.99
71297;SHT31;59082;50.658;4.608;2023-03-12T21:40:16;9.75;99.99
71297;SHT31;59082;50.658;4.608;2023-03-12T21:42:41;9.79;99.99
71297;SHT31;59082;50.658;4.608;2023-03-12T21:45:08;9.95;99.99
71297;SHT31;59082;50.658;4.608;2023-03-12T21:47:37;9.94;99.99
71297;SHT31;59082;50.658;4.608;2023-03-12T21:50:03;9.91;99.99
71297;SHT31;59082;50.658;4.608;2023-03-12T21:52:29;9.90;99.99
71297;SHT31;59082;50.658;4.608;2023-03-12T21:54:54;10.10;99.99
